createdAt,value
2023-01-29T00:00:21.608Z,16.50
2023-01-29T00:03:05.838Z,16.30
2023-01-29T00:05:50.340Z,16.87
2023-01-29T00:08:34.831Z,15.93
2023-01-29T00:11:18.245Z,16.07
2023-01-29T00:14:01.404Z,16.97
2023-01-29T00:16:44.540Z,16.83
2023-01-29T00:19:27.884Z,16.70
2023-01-29T00:22:14.876Z,17.00
2023-01-29T00:25:00.597Z,15.80
2023-01-29T00:27:46.419Z,16.43
2023-01-29T00:30:29.645Z,15.10
2023-01-29T00:33:13.679Z,15.83
2023-01-29T00:35:57.155Z,17.00
2023-01-29T00:38:41.690Z,16.60
2023-01-29T00:41:42.479Z,15.67
2023-01-29T00:44:44.449Z,15.63
2023-01-29T00:47:34.850Z,15.87
2023-01-29T00:50:18.596Z,15.30
2023-01-29T00:53:01.907Z,15.83
2023-01-29T00:55:47.569Z,17.00
2023-01-29T00:58:34.318Z,15.57
2023-01-29T01:01:17.905Z,16.13
2023-01-29T01:04:00.115Z,15.60
2023-01-29T01:06:44.247Z,15.70
2023-01-29T01:09:46.885Z,16.87
2023-01-29T01:12:33.175Z,17.23
2023-01-29T01:15:16.303Z,15.10
2023-01-29T01:18:01.118Z,15.33
2023-01-29T01:20:44.304Z,16.90
2023-01-29T01:23:28.086Z,15.80
2023-01-29T01:26:11.953Z,15.60
2023-01-29T01:28:56.502Z,18.10
2023-01-29T01:31:39.671Z,16.63
2023-01-29T01:34:23.166Z,16.23
2023-01-29T01:37:06.581Z,15.47
2023-01-29T01:39:50.645Z,15.97
2023-01-29T01:42:33.774Z,14.70
2023-01-29T01:45:24.883Z,15.47
2023-01-29T01:48:14.392Z,14.60
2023-01-29T01:51:03.365Z,16.33
2023-01-29T01:53:58.633Z,15.40
2023-01-29T01:56:45.963Z,16.07
2023-01-29T01:59:29.076Z,15.90
2023-01-29T02:02:32.092Z,15.07
2023-01-29T02:05:33.492Z,15.13
2023-01-29T02:08:36.578Z,15.13
2023-01-29T02:11:19.689Z,13.97
2023-01-29T02:14:03.658Z,14.60
2023-01-29T02:16:46.797Z,14.67
2023-01-29T02:19:45.720Z,13.87
2023-01-29T02:22:54.118Z,13.23
2023-01-29T02:26:16.116Z,14.90
2023-01-29T02:29:27.597Z,13.97
2023-01-29T02:32:21.677Z,15.23
2023-01-29T02:35:30.240Z,14.13
2023-01-29T02:38:22.290Z,14.37
2023-01-29T02:41:12.049Z,15.00
2023-01-29T02:44:03.115Z,15.70
2023-01-29T02:46:53.911Z,14.13
2023-01-29T02:49:45.600Z,14.20
2023-01-29T02:52:37.729Z,13.73
2023-01-29T02:55:26.088Z,15.27
2023-01-29T02:58:14.746Z,14.73
2023-01-29T03:01:05.734Z,14.23
2023-01-29T03:03:57.017Z,14.07
2023-01-29T03:06:44.336Z,14.30
2023-01-29T03:09:34.508Z,14.17
2023-01-29T03:12:39.453Z,14.87
2023-01-29T03:15:29.566Z,15.43
2023-01-29T03:18:27.572Z,14.53
2023-01-29T03:21:34.493Z,13.60
2023-01-29T03:24:39.273Z,14.47
2023-01-29T03:27:45.460Z,13.03
2023-01-29T03:30:49.584Z,15.23
2023-01-29T03:33:40.539Z,15.23
2023-01-29T03:36:38.141Z,13.97
2023-01-29T03:39:21.316Z,14.70
2023-01-29T03:42:10.215Z,13.17
2023-01-29T03:45:00.496Z,11.90
2023-01-29T03:47:50.488Z,13.03
2023-01-29T03:50:40.303Z,12.87
2023-01-29T03:53:29.767Z,14.60
2023-01-29T03:56:29.390Z,12.77
2023-01-29T04:02:27.648Z,12.33
2023-01-29T04:08:18.313Z,12.23
2023-01-29T04:11:09.764Z,14.33
2023-01-29T04:13:58.327Z,12.13
2023-01-29T04:16:46.306Z,13.00
2023-01-29T04:19:29.959Z,12.83
2023-01-29T04:22:18.540Z,12.67
2023-01-29T04:25:08.727Z,12.37
2023-01-29T04:28:05.747Z,12.73
2023-01-29T04:34:05.333Z,12.60
2023-01-29T04:37:02.735Z,11.90
2023-01-29T04:39:50.989Z,13.13
2023-01-29T04:42:42.957Z,12.57
2023-01-29T04:45:38.212Z,11.20
2023-01-29T04:48:28.717Z,12.07
2023-01-29T04:51:23.519Z,12.27
2023-01-29T04:54:13.905Z,12.43
2023-01-29T04:57:03.159Z,11.20
2023-01-29T04:59:52.437Z,12.03
2023-01-29T05:02:42.693Z,13.47
2023-01-29T05:05:25.967Z,14.60
2023-01-29T05:08:10.577Z,13.03
2023-01-29T05:10:56.171Z,11.73
2023-01-29T05:13:43.535Z,11.70
2023-01-29T05:16:32.075Z,12.57
2023-01-29T05:19:18.163Z,12.37
2023-01-29T05:22:01.793Z,11.80
2023-01-29T05:24:47.063Z,12.07
2023-01-29T05:27:53.353Z,11.63
2023-01-29T05:30:38.279Z,11.17
2023-01-29T05:33:23.506Z,11.13
2023-01-29T05:36:10.568Z,11.70
2023-01-29T05:38:53.733Z,11.27
2023-01-29T05:41:36.896Z,12.03
2023-01-29T05:44:20.576Z,11.50
2023-01-29T05:47:04.088Z,12.27
2023-01-29T05:49:47.479Z,11.77
2023-01-29T05:52:32.071Z,11.57
2023-01-29T05:55:15.138Z,12.13
2023-01-29T05:57:58.201Z,12.33
2023-01-29T06:00:41.649Z,11.47
2023-01-29T06:03:24.851Z,11.67
2023-01-29T06:06:08.436Z,11.80
2023-01-29T06:08:53.189Z,11.00
2023-01-29T06:11:36.359Z,13.83
2023-01-29T06:14:19.969Z,12.60
2023-01-29T06:17:03.090Z,11.23
2023-01-29T06:19:48.310Z,12.87
2023-01-29T06:22:33.440Z,11.70
2023-01-29T06:25:18.073Z,12.83
2023-01-29T06:28:01.160Z,14.37
2023-01-29T06:30:49.212Z,12.27
2023-01-29T06:33:32.714Z,11.80
2023-01-29T06:36:15.859Z,13.33
2023-01-29T06:39:01.257Z,12.10
2023-01-29T06:41:47.544Z,13.27
2023-01-29T06:44:30.674Z,12.50
2023-01-29T06:47:13.778Z,13.90
2023-01-29T06:49:59.300Z,12.47
2023-01-29T06:52:42.512Z,13.27
2023-01-29T06:55:25.704Z,13.73
2023-01-29T06:58:11.682Z,13.33
2023-01-29T07:00:54.875Z,13.43
2023-01-29T07:03:38.544Z,13.37
2023-01-29T07:06:22.386Z,14.07
2023-01-29T07:09:06.316Z,13.20
2023-01-29T07:11:49.805Z,14.70
2023-01-29T07:14:34.626Z,13.93
2023-01-29T07:17:17.760Z,13.90
2023-01-29T07:20:00.936Z,15.40
2023-01-29T07:22:47.649Z,14.57
2023-01-29T07:25:31.178Z,13.23
2023-01-29T07:28:14.410Z,13.30
2023-01-29T07:30:59.555Z,12.10
2023-01-29T07:33:50.210Z,13.77
2023-01-29T07:36:33.365Z,14.00
2023-01-29T07:39:16.832Z,14.73
2023-01-29T07:42:03.991Z,14.00
2023-01-29T07:44:47.086Z,15.17
2023-01-29T07:47:33.080Z,14.40
2023-01-29T07:50:16.534Z,13.97
2023-01-29T07:53:03.041Z,15.13
2023-01-29T07:55:46.438Z,16.27
2023-01-29T07:58:31.918Z,15.20
2023-01-29T08:01:15.209Z,15.10
2023-01-29T08:03:59.799Z,15.87
2023-01-29T08:06:44.392Z,14.80
2023-01-29T08:09:27.502Z,15.70
2023-01-29T08:12:10.691Z,15.17
2023-01-29T08:15:02.767Z,16.17
2023-01-29T08:17:57.250Z,16.17
2023-01-29T08:20:42.931Z,15.67
2023-01-29T08:23:26.094Z,15.33
2023-01-29T08:26:11.669Z,14.33
2023-01-29T08:28:56.028Z,17.20
2023-01-29T08:31:39.197Z,13.90
2023-01-29T08:34:22.307Z,15.40
2023-01-29T08:37:07.036Z,14.43
2023-01-29T08:39:50.199Z,16.00
2023-01-29T08:42:33.326Z,15.03
2023-01-29T08:45:17.667Z,16.97
2023-01-29T08:48:01.368Z,16.50
2023-01-29T08:50:44.853Z,16.40
2023-01-29T08:53:30.947Z,15.50
2023-01-29T08:56:14.191Z,16.17
2023-01-29T08:58:59.723Z,15.97
2023-01-29T09:01:42.814Z,16.50
2023-01-29T09:04:29.310Z,16.10
2023-01-29T09:07:12.436Z,15.63
2023-01-29T09:09:56.984Z,15.93
2023-01-29T09:12:40.109Z,17.30
2023-01-29T09:15:23.471Z,17.33
2023-01-29T09:18:07.246Z,16.73
2023-01-29T09:20:52.236Z,15.33
2023-01-29T09:23:36.004Z,15.77
2023-01-29T09:26:20.944Z,17.13
2023-01-29T09:29:04.099Z,17.27
2023-01-29T09:31:47.508Z,16.47
2023-01-29T09:34:30.840Z,17.80
2023-01-29T09:37:13.968Z,16.90
2023-01-29T09:39:57.032Z,17.87
2023-01-29T09:42:51.031Z,17.37
2023-01-29T09:45:34.938Z,16.37
2023-01-29T09:48:18.627Z,16.63
2023-01-29T09:51:06.750Z,18.87
2023-01-29T09:53:58.711Z,18.47
2023-01-29T09:56:45.314Z,18.50
2023-01-29T09:59:35.237Z,16.70
2023-01-29T10:02:38.664Z,16.63
2023-01-29T10:05:34.545Z,18.13
2023-01-29T10:08:44.273Z,19.13
2023-01-29T10:11:43.448Z,16.57
2023-01-29T10:14:38.538Z,16.50
2023-01-29T10:17:50.315Z,16.30
2023-01-29T10:20:51.401Z,18.33
2023-01-29T10:23:38.547Z,17.23
2023-01-29T10:26:27.740Z,17.63
2023-01-29T10:29:17.942Z,18.73
2023-01-29T10:32:08.286Z,17.37
2023-01-29T10:34:58.136Z,17.10
2023-01-29T10:37:45.818Z,18.47
2023-01-29T10:40:38.348Z,16.80
2023-01-29T10:43:32.221Z,17.83
2023-01-29T10:46:24.873Z,17.20
2023-01-29T10:49:23.279Z,17.37
2023-01-29T10:52:19.161Z,18.40
2023-01-29T10:55:16.155Z,17.70
2023-01-29T10:58:10.860Z,18.73
2023-01-29T11:00:54.132Z,19.47
2023-01-29T11:03:37.780Z,20.57
2023-01-29T11:06:25.553Z,19.63
2023-01-29T11:09:19.166Z,19.60
2023-01-29T11:12:08.320Z,17.50
2023-01-29T11:14:56.560Z,17.77
2023-01-29T11:17:40.428Z,19.73
2023-01-29T11:20:29.638Z,19.47
2023-01-29T11:23:38.073Z,20.30
2023-01-29T11:26:24.312Z,18.80
2023-01-29T11:29:39.866Z,19.10
2023-01-29T11:32:35.531Z,17.93
2023-01-29T11:35:41.684Z,20.07
2023-01-29T11:39:23.979Z,19.87
2023-01-29T11:42:21.814Z,19.07
2023-01-29T11:45:06.813Z,20.47
2023-01-29T11:47:56.536Z,18.67
2023-01-29T11:50:44.763Z,17.60
2023-01-29T11:53:40.260Z,19.07
2023-01-29T11:56:33.550Z,20.10
2023-01-29T11:59:40.174Z,19.70
2023-01-29T12:02:36.421Z,21.30
2023-01-29T12:05:30.454Z,19.87
2023-01-29T12:08:19.406Z,19.90
2023-01-29T12:11:09.929Z,20.80
2023-01-29T12:13:55.581Z,21.17
2023-01-29T12:16:50.994Z,22.53
2023-01-29T12:19:44.651Z,19.83
2023-01-29T12:22:44.543Z,21.90
2023-01-29T12:25:39.929Z,19.07
2023-01-29T12:28:41.366Z,19.40
2023-01-29T12:31:40.506Z,20.20
2023-01-29T12:34:32.372Z,20.50
2023-01-29T12:37:25.663Z,19.63
2023-01-29T12:40:16.823Z,19.27
2023-01-29T12:43:09.585Z,21.60
2023-01-29T12:45:57.009Z,21.53
2023-01-29T12:48:45.187Z,20.47
2023-01-29T12:51:34.960Z,21.43
2023-01-29T12:54:23.513Z,21.77
2023-01-29T12:57:11.781Z,21.40
2023-01-29T12:59:59.707Z,21.43
2023-01-29T13:02:53.419Z,21.43
2023-01-29T13:05:45.517Z,20.10
2023-01-29T13:08:39.755Z,21.20
2023-01-29T13:11:27.405Z,19.97
2023-01-29T13:14:24.723Z,19.30
2023-01-29T13:17:14.483Z,21.83
2023-01-29T13:20:05.205Z,21.73
2023-01-29T13:22:49.648Z,21.43
2023-01-29T13:25:35.288Z,21.97
2023-01-29T13:28:21.011Z,21.70
2023-01-29T13:31:19.696Z,21.50
2023-01-29T13:34:18.382Z,23.97
2023-01-29T13:37:04.263Z,21.70
2023-01-29T13:39:52.115Z,19.90
2023-01-29T13:42:53.450Z,21.27
2023-01-29T13:45:50.345Z,19.67
2023-01-29T13:48:36.965Z,20.70
2023-01-29T13:51:23.751Z,21.30
2023-01-29T13:54:17.147Z,19.30
2023-01-29T13:57:04.568Z,21.57
2023-01-29T13:59:54.738Z,20.40
2023-01-29T14:02:43.400Z,20.00
2023-01-29T14:05:41.489Z,20.73
2023-01-29T14:08:45.459Z,21.87
2023-01-29T14:11:37.652Z,21.67
2023-01-29T14:15:02.785Z,20.70
2023-01-29T14:18:16.657Z,19.30
2023-01-29T14:21:02.752Z,20.00
2023-01-29T14:23:48.249Z,19.83
2023-01-29T14:26:34.520Z,20.33
2023-01-29T14:29:29.066Z,19.93
2023-01-29T14:32:21.938Z,20.50
2023-01-29T14:35:21.180Z,21.00
2023-01-29T14:38:08.818Z,22.07
2023-01-29T14:40:52.840Z,19.67
2023-01-29T14:43:36.315Z,20.80
2023-01-29T14:46:45.984Z,25.73
2023-01-29T14:49:57.909Z,20.70
2023-01-29T14:52:51.193Z,20.70
2023-01-29T14:55:41.043Z,21.30
2023-01-29T14:58:31.038Z,21.13
2023-01-29T15:01:22.915Z,22.43
2023-01-29T15:04:14.082Z,23.83
2023-01-29T15:07:04.374Z,23.33
2023-01-29T15:09:51.109Z,20.87
2023-01-29T15:12:40.487Z,21.93
2023-01-29T15:15:36.828Z,23.13
2023-01-29T15:18:28.566Z,23.10
2023-01-29T15:21:16.484Z,21.23
2023-01-29T15:24:09.660Z,23.00
2023-01-29T15:26:52.818Z,23.20
2023-01-29T15:29:36.789Z,23.33
2023-01-29T15:32:30.752Z,22.57
2023-01-29T15:35:28.389Z,24.73
2023-01-29T15:38:24.090Z,24.43
2023-01-29T15:41:20.357Z,23.87
2023-01-29T15:44:03.763Z,22.10
2023-01-29T15:46:51.247Z,21.17
2023-01-29T15:49:39.263Z,21.67
2023-01-29T15:52:28.588Z,21.40
2023-01-29T15:55:18.082Z,22.53
2023-01-29T15:58:02.997Z,21.80
2023-01-29T16:00:52.255Z,21.53
2023-01-29T16:03:38.965Z,20.63
2023-01-29T16:06:23.435Z,22.73
2023-01-29T16:09:11.734Z,20.30
2023-01-29T16:11:58.237Z,22.80
2023-01-29T16:14:45.210Z,22.47
2023-01-29T16:17:35.349Z,20.97
2023-01-29T16:20:32.589Z,20.67
2023-01-29T16:23:21.756Z,20.23
2023-01-29T16:26:08.166Z,22.27
2023-01-29T16:28:51.719Z,20.73
2023-01-29T16:31:40.236Z,20.87
2023-01-29T16:34:31.407Z,20.57
2023-01-29T16:37:23.006Z,20.77
2023-01-29T16:40:17.119Z,21.53
2023-01-29T16:43:48.658Z,21.80
2023-01-29T16:46:37.710Z,19.43
2023-01-29T16:49:47.328Z,20.67
2023-01-29T16:52:32.744Z,21.20
2023-01-29T16:55:22.076Z,25.85
2023-01-29T16:58:13.812Z,23.40
2023-01-29T17:01:06.691Z,21.80
2023-01-29T17:03:58.834Z,20.20
2023-01-29T17:06:46.075Z,21.07
2023-01-29T17:09:35.616Z,20.80
2023-01-29T17:12:21.990Z,20.70
2023-01-29T17:15:27.242Z,20.80
2023-01-29T17:18:19.036Z,20.73
2023-01-29T17:21:03.630Z,20.20
2023-01-29T17:23:46.731Z,19.83
2023-01-29T17:26:33.182Z,21.13
2023-01-29T17:29:19.117Z,19.83
2023-01-29T17:32:02.670Z,22.77
2023-01-29T17:34:46.791Z,21.80
2023-01-29T17:37:31.311Z,22.70
2023-01-29T17:40:31.435Z,21.93
2023-01-29T17:43:14.560Z,24.93
2023-01-29T17:45:57.828Z,23.00
2023-01-29T17:48:41.308Z,21.80
2023-01-29T17:51:28.881Z,24.33
2023-01-29T17:54:13.566Z,21.43
2023-01-29T17:57:00.288Z,23.70
2023-01-29T17:59:45.010Z,23.80
2023-01-29T18:02:31.299Z,21.30
2023-01-29T18:05:16.935Z,21.33
2023-01-29T18:08:00.503Z,22.57
2023-01-29T18:10:47.965Z,21.07
2023-01-29T18:13:31.173Z,23.87
2023-01-29T18:16:14.591Z,22.13
2023-01-29T18:18:57.715Z,19.63
2023-01-29T18:21:41.091Z,22.23
2023-01-29T18:24:26.647Z,21.87
2023-01-29T18:27:13.186Z,22.47
2023-01-29T18:29:57.868Z,20.90
2023-01-29T18:32:41.155Z,22.67
2023-01-29T18:35:24.872Z,20.23
2023-01-29T18:38:08.096Z,21.43
2023-01-29T18:40:51.363Z,22.17
2023-01-29T18:43:38.470Z,22.60
2023-01-29T18:46:24.355Z,22.73
2023-01-29T18:49:09.253Z,21.60
2023-01-29T18:51:55.337Z,21.87
2023-01-29T18:54:40.280Z,22.00
2023-01-29T18:58:29.371Z,21.10
2023-01-29T19:00:28.106Z,22.60
2023-01-29T19:03:11.876Z,22.57
2023-01-29T19:05:58.368Z,22.90
2023-01-29T19:08:43.089Z,21.67
2023-01-29T19:11:28.500Z,21.37
2023-01-29T19:14:11.522Z,22.53
2023-01-29T19:16:59.565Z,22.67
2023-01-29T19:19:42.850Z,23.10
2023-01-29T19:22:29.057Z,23.53
2023-01-29T19:25:21.689Z,22.07
2023-01-29T19:28:05.369Z,23.50
2023-01-29T19:30:48.969Z,24.17
2023-01-29T19:33:35.432Z,23.10
2023-01-29T19:36:20.911Z,24.10
2023-01-29T19:39:04.180Z,23.23
2023-01-29T19:41:48.903Z,22.47
2023-01-29T19:44:32.511Z,23.23
2023-01-29T19:47:16.159Z,22.47
2023-01-29T19:50:02.540Z,24.10
2023-01-29T19:52:51.778Z,24.67
2023-01-29T19:55:37.631Z,24.20
2023-01-29T19:58:21.084Z,23.17
2023-01-29T20:01:06.946Z,24.80
2023-01-29T20:03:54.372Z,23.73
2023-01-29T20:06:41.280Z,22.90
2023-01-29T20:09:27.455Z,24.97
2023-01-29T20:12:13.134Z,25.90
2023-01-29T20:14:56.431Z,24.83
2023-01-29T20:17:40.595Z,25.17
2023-01-29T20:20:24.337Z,23.93
2023-01-29T20:23:25.047Z,24.43
2023-01-29T20:26:16.833Z,22.70
2023-01-29T20:29:02.449Z,27.00
2023-01-29T20:31:46.034Z,25.50
2023-01-29T20:34:29.372Z,25.70
2023-01-29T20:37:12.526Z,24.20
2023-01-29T20:39:57.086Z,26.43
2023-01-29T20:42:40.203Z,26.37
2023-01-29T20:45:25.189Z,24.50
2023-01-29T20:48:08.984Z,23.23
2023-01-29T20:50:52.518Z,22.47
2023-01-29T20:53:36.242Z,23.00
2023-01-29T20:56:32.170Z,22.83
2023-01-29T20:59:20.711Z,23.40
2023-01-29T21:02:06.700Z,24.37
2023-01-29T21:04:50.169Z,22.47
2023-01-29T21:07:33.746Z,22.40
2023-01-29T21:10:17.800Z,23.43
2023-01-29T21:13:03.633Z,22.70
2023-01-29T21:15:46.777Z,24.67
2023-01-29T21:18:30.381Z,23.50
2023-01-29T21:21:13.782Z,22.50
2023-01-29T21:23:58.283Z,23.00
2023-01-29T21:26:43.772Z,23.87
2023-01-29T21:29:30.602Z,22.83
2023-01-29T21:32:14.213Z,21.90
2023-01-29T21:34:57.230Z,23.37
2023-01-29T21:37:44.163Z,23.30
2023-01-29T21:40:27.359Z,23.83
2023-01-29T21:43:12.223Z,22.77
2023-01-29T21:46:02.613Z,22.97
2023-01-29T21:48:45.780Z,24.40
2023-01-29T21:51:29.414Z,24.23
2023-01-29T21:54:12.412Z,24.00
2023-01-29T21:56:57.383Z,22.63
2023-01-29T21:59:40.549Z,22.53
2023-01-29T22:02:26.641Z,24.40
2023-01-29T22:05:18.939Z,24.10
2023-01-29T22:08:04.996Z,23.23
2023-01-29T22:10:48.274Z,22.03
2023-01-29T22:13:35.611Z,21.50
2023-01-29T22:16:18.742Z,22.03
2023-01-29T22:19:03.363Z,23.10
2023-01-29T22:21:46.493Z,22.27
2023-01-29T22:24:29.768Z,23.23
2023-01-29T22:27:13.101Z,22.07
2023-01-29T22:29:57.003Z,23.07
2023-01-29T22:32:40.175Z,24.13
2023-01-29T22:35:24.687Z,21.40
2023-01-29T22:38:07.935Z,22.70
2023-01-29T22:40:51.389Z,20.67
2023-01-29T22:43:34.576Z,21.67
2023-01-29T22:46:19.603Z,21.17
2023-01-29T22:49:02.695Z,22.10
2023-01-29T22:51:48.562Z,21.47
2023-01-29T22:54:31.614Z,23.83
2023-01-29T22:57:16.413Z,24.93
2023-01-29T22:59:59.636Z,26.47
2023-01-29T23:02:42.720Z,23.73
2023-01-29T23:05:25.740Z,26.17
2023-01-29T23:08:12.695Z,25.47
2023-01-29T23:10:55.834Z,26.23
2023-01-29T23:13:38.922Z,27.37
2023-01-29T23:16:28.166Z,24.77
2023-01-29T23:19:12.829Z,25.07
2023-01-29T23:21:55.868Z,27.33
2023-01-29T23:24:40.351Z,25.93
2023-01-29T23:27:22.379Z,24.43
2023-01-29T23:30:06.747Z,24.50
2023-01-29T23:32:52.381Z,23.73
2023-01-29T23:35:35.440Z,21.57
2023-01-29T23:38:18.642Z,22.57
2023-01-29T23:41:03.101Z,20.90
2023-01-29T23:43:46.429Z,22.00
2023-01-29T23:46:29.589Z,22.90
2023-01-29T23:49:12.876Z,19.63
2023-01-29T23:51:56.014Z,18.87
2023-01-29T23:54:39.107Z,18.67
2023-01-29T23:57:28.563Z,18.07
